Station: Cooma Airport  

  Atmospheric Gas Attenuation - ITU Rec 676-11   ----------------- dB/100km -----------------
Date Time Temp RH % AH g/m3 Dew Point Wind Direction Speed kph Gust kph Barometer mB Rainfall Since 9am 24GHz 47GHz 76GHz 122GHz 134GHz 241GHz
02/09 20:50 9.5 73 6.65 4.9 7 13 1013.5 0 15.6 24.0 34.0 89.0 77.7 265.5
02/09 20:40 8.9 69 6.05 3.5 7 11 1013.8 0 14.3 23.2 32.0 83.4 70.6 240.3
02/09 20:30 9.3 67 6.02 3.5 7 9 1013.4 0 14.3 23.0 31.7 82.7 69.8 237.7
02/09 20:20 10.2 66 6.28 4.1 2 7 1013.8 0 14.8 23.2 32.3 84.4 72.3 246.6
02/09 20:10 10.6 63 6.15 3.9 6 7 1013.9 0 14.5 22.9 31.7 82.7 70.3 239.7
02/09 20:00 11.6 62 6.45 4.6 9 13 1013.8 0 15.1 23.1 32.4 84.7 73.2 249.8
02/09 19:50 11.9 61 6.46 4.6 11 19 1014.1 0 15.1 23.1 32.3 84.5 73.0 249.3
02/09 19:40 12.2 59 6.37 4.4 13 20 1014 0 14.9 22.9 31.9 83.3 71.6 244.5
02/09 19:30 12 61 6.5 4.7 13 19 1013.8 0 15.2 23.1 32.4 84.8 73.4 250.7
02/09 19:20 12.1 59 6.33 4.3 11 20 1014 0 14.8 22.8 31.8 83.0 71.2 243.0
02/09 19:10 12.7 58 6.46 4.7 13 24 1014 0 15.1 22.9 32.0 83.6 72.3 246.8
02/09 19:00 13 58 6.58 4.9 17 24 1013.7 0 15.3 23.0 32.3 84.5 73.5 251.0
02/09 18:50 13.2 58 6.66 5.1 17 24 1013.8 0 15.5 23.0 32.6 85.1 74.3 253.9
02/09 18:40 13.3 57 6.59 5 17 24 1013.8 0 15.3 22.9 32.3 84.3 73.3 250.6
02/09 18:30 13.3 57 6.59 5 19 30 1013.6 0 15.3 22.9 32.2 84.3 73.3 250.5
02/09 18:20 13.3 57 6.59 5 15 24 1013.8 0 15.3 22.9 32.3 84.3 73.3 250.6
02/09 18:10 13.1 57 6.5 4.8 15 22 1013.8 0 15.1 22.8 32.0 83.6 72.4 247.3
02/09 18:00 13.4 56 6.51 4.8 19 24 1013.1 0 15.2 22.7 31.9 83.3 72.2 246.7
02/09 17:50 13.5 55 6.43 4.6 20 32 1013.4 0 15.0 22.6 31.6 82.5 71.2 243.0
02/09 17:40 14 53 6.39 4.6 26 39 1013.4 0 14.9 22.4 31.2 81.6 70.2 239.8
02/09 17:30 14 53 6.39 4.6 24 33 1013.3 0 14.9 22.4 31.2 81.5 70.2 239.7
02/09 17:20 14.1 51 6.19 4.1 22 32 1013.5 0 14.4 22.1 30.5 79.5 67.7 231.0
02/09 17:10 14.4 49 6.06 3.8 22 32 1013.5 0 14.2 21.8 29.9 78.0 65.9 224.7
02/09 17:00 15.1 46 5.93 3.6 20 24 1013.5 0 13.9 21.5 29.2 76.1 63.8 217.4
02/09 16:50 15.7 46 6.15 4.1 22 33 1013.4 0 14.3 21.7 29.7 77.6 65.9 224.8
02/09 16:40 15.8 45 6.06 3.9 20 30 1013.5 0 14.1 21.5 29.4 76.6 64.8 220.9
02/09 16:30 15.9 45 6.09 4 24 32 1013.1 0 14.2 21.5 29.4 76.8 65.0 221.8
02/09 16:20 15.6 44 5.85 3.4 26 35 1013.5 0 13.7 21.3 28.7 74.8 62.5 212.9
02/09 16:10 15.7 43 5.75 3.2 26 32 1013.5 0 13.5 21.1 28.3 73.8 61.3 208.5
02/09 16:00 16.9 39 5.61 2.9 24 37 1013.3 0 13.1 20.6 27.4 71.4 58.8 199.9
02/09 15:50 17 38 5.5 2.6 28 39 1013.5 0 12.9 20.5 27.0 70.4 57.5 195.3
02/09 15:40 17.1 38 5.53 2.7 30 43 1013.8 0 12.9 20.5 27.1 70.6 57.7 196.3
02/09 15:30 17.3 37 5.45 2.5 28 41 1013.5 0 12.8 20.3 26.8 69.6 56.7 192.6
02/09 15:20 17.1 38 5.53 2.7 30 46 1013.8 0 12.9 20.5 27.1 70.6 57.7 196.3
02/09 15:10 17.4 37 5.48 2.6 28 41 1013.9 0 12.8 20.4 26.8 69.9 57.0 193.7
02/09 15:00 18.1 36 5.56 2.8 26 41 1013.5 0 13.0 20.3 26.9 70.0 57.4 195.1
02/09 14:50 18.1 35 5.41 2.4 26 43 1013.8 0 12.7 20.1 26.4 68.6 55.7 189.3
02/09 14:40 18.3 34 5.32 2.2 24 39 1013.9 0 12.5 19.9 26.0 67.7 54.6 185.4
02/09 14:30 18.6 35 5.57 2.9 24 39 1013.6 0 13.0 20.2 26.7 69.6 57.1 194.3
02/09 14:20 18.3 35 5.47 2.6 30 41 1013.8 0 12.8 20.1 26.5 69.0 56.2 191.1
02/09 14:10 18.2 36 5.6 2.9 24 32 1013.6 0 13.1 20.3 27.0 70.2 57.7 196.4
02/09 14:00 18.1 35 5.41 2.4 26 37 1013.3 0 12.7 20.1 26.4 68.6 55.7 189.2
02/09 13:50 18.6 36 5.73 3.3 30 41 1013.6 0 13.3 20.4 27.3 71.1 58.9 200.5
02/09 13:40 18.5 36 5.7 3.2 26 43 1013.6 0 13.3 20.4 27.2 70.9 58.6 199.6
02/09 13:30 18.7 35 5.6 2.9 28 44 1013.5 0 13.0 20.2 26.8 69.8 57.4 195.2
02/09 13:20 18.3 36 5.63 3 33 50 1013.9 0 13.1 20.4 27.1 70.4 58.0 197.4
02/09 13:10 18 36 5.53 2.7 35 43 1014 0 12.9 20.3 26.8 69.8 57.1 194.2
02/09 13:00 18.4 37 5.82 3.5 35 52 1013.9 0 13.5 20.6 27.7 72.1 60.1 204.6
02/09 12:50 18.3 37 5.78 3.4 33 48 1014.2 0 13.4 20.6 27.6 71.8 59.7 203.3
02/09 12:40 17.8 38 5.77 3.3 37 50 1014.4 0 13.4 20.7 27.7 72.2 60.0 204.2
02/09 12:30 17.9 37 5.65 3 37 54 1014.1 0 13.2 20.5 27.3 71.0 58.5 199.2
02/09 12:20 18.4 37 5.82 3.5 37 54 1014.5 0 13.5 20.6 27.7 72.1 60.1 204.7
02/09 12:10 17.8 36 5.46 2.5 39 63 1014.4 0 12.8 20.3 26.7 69.4 56.5 192.0
02/09 12:00 17.9 37 5.65 3 37 50 1014.5 0 13.2 20.5 27.3 71.0 58.6 199.2
02/09 11:50 17.9 39 5.95 3.8 30 48 1014.6 0 13.8 20.9 28.3 73.8 61.9 211.1
02/09 11:40 18 37 5.68 3.1 33 48 1015.1 0 13.2 20.5 27.4 71.3 58.9 200.3
02/09 11:30 17.4 38 5.63 3 32 44 1015.2 0 13.1 20.6 27.4 71.3 58.7 199.8
02/09 11:20 17.9 37 5.65 3 28 46 1015.2 0 13.2 20.5 27.3 71.1 58.6 199.4
02/09 11:10 18.1 40 6.18 4.3 28 39 1015 0 14.3 21.2 29.0 75.7 64.4 219.8
02/09 11:00 18 42 6.45 4.9 28 46 1015.2 0 14.9 21.6 30.0 78.3 67.6 231.0
02/09 10:50 17.3 41 6.04 3.9 32 48 1015.3 0 14.0 21.2 28.8 75.2 63.5 216.4
02/09 10:40 17.7 40 6.03 3.9 32 46 1015.5 0 14.0 21.1 28.7 74.7 63.0 215.0
02/09 10:30 17.9 41 6.26 4.5 30 43 1015.4 0 14.5 21.4 29.4 76.7 65.5 223.7
02/09 10:20 17.5 41 6.11 4.1 22 39 1015.7 0 14.2 21.3 29.0 75.7 64.1 218.8
02/09 10:10 17.2 45 6.59 5.2 20 24 1015.5 0 15.2 22.0 30.8 80.5 69.9 239.1
02/09 10:00 16.8 44 6.29 4.5 28 33 1015.7 0 14.6 21.7 29.9 78.0 66.8 228.0
02/09 09:50 16.9 45 6.47 4.9 28 39 1015.7 0 14.9 21.9 30.5 79.6 68.8 235.1
02/09 09:40 16.6 47 6.64 5.3 26 39 1015.5 0 15.3 22.2 31.2 81.5 71.0 242.9
02/09 09:30 16.2 48 6.62 5.2 35 43 1015.7 0 15.3 22.3 31.3 81.8 71.2 243.3
02/09 09:20 16.1 48 6.58 5.1 28 39 1015.5 0 15.2 22.3 31.2 81.5 70.8 241.9
02/09 09:10 16.2 49 6.76 5.5 28 43 1015.5 0 15.6 22.5 31.8 83.1 72.8 249.2
02/09 09:00 16 51 6.95 5.9 24 39 1015.3 0 16.0 22.8 32.6 85.1 75.3 257.7
02/09 08:50 15.6 51 6.78 5.5 20 30 1015.7 0 15.6 22.7 32.1 83.9 73.6 251.9
02/09 08:40 15.4 51 6.7 5.3 20 33 1015.7 0 15.5 22.6 31.9 83.4 72.9 249.1
02/09 08:30 15 50 6.41 4.7 17 32 1015.4 0 14.9 22.3 31.0 80.9 69.7 238.1
02/09 08:20 14.8 53 6.71 5.3 13 20 1015.7 0 15.5 22.8 32.2 84.1 73.5 251.4
02/09 08:10 14.4 53 6.55 5 13 22 1015.5 0 15.2 22.6 31.7 82.9 71.9 245.8
02/09 08:00 13.9 55 6.59 5 17 26 1015.2 0 15.3 22.8 32.1 83.8 72.9 249.0
02/09 07:50 13.4 57 6.63 5.1 19 28 1015.3 0 15.4 23.0 32.4 84.7 73.8 252.3
02/09 07:40 12.9 61 6.88 5.6 15 26 1015.2 0 16.0 23.5 33.6 87.8 77.4 264.8
02/09 07:30 12 65 6.93 5.6 13 20 1015 0 16.1 23.8 34.1 89.3 78.9 270.0
02/09 07:20 11.1 69 6.95 5.6 11 17 1015.3 0 16.2 24.1 34.6 90.5 80.1 274.0
02/09 07:10 10.1 73 6.9 5.5 11 15 1015.3 0 16.1 24.3 34.8 91.1 80.5 275.2
02/09 07:00 9.2 77 6.88 5.4 11 13 1014.8 0 16.1 24.5 35.1 91.9 81.1 277.4
02/09 06:50 8.1 81 6.74 5 13 17 1015 0 15.9 24.6 35.1 91.7 80.4 274.8
02/09 06:40 7.5 82 6.57 4.6 15 19 1014.9 0 15.5 24.4 34.6 90.6 78.8 268.9
02/09 06:30 7.5 81 6.49 4.5 13 13 1014.7 0 15.3 24.3 34.3 89.7 77.7 265.1
02/09 06:20 7.5 80 6.41 4.3 13 15 1014.9 0 15.2 24.2 34.0 88.9 76.6 261.4
02/09 06:10 7.3 82 6.48 4.4 11 13 1014.9 0 15.3 24.3 34.4 89.8 77.8 265.4
02/09 06:00 7.3 82 6.48 4.4 13 17 1014.4 0 15.3 24.3 34.3 89.8 77.7 265.2
02/09 05:50 7.2 80 6.28 4 13 17 1014.6 0 14.9 24.0 33.6 87.8 75.2 256.3
02/09 05:40 8.4 78 6.62 4.8 9 13 1014.8 0 15.6 24.3 34.4 90.1 78.5 268.1
02/09 05:30 8.6 78 6.7 5 6 13 1014.6 0 15.7 24.3 34.7 90.7 79.4 271.1
02/09 05:20 8 76 6.29 4 11 15 1014.8 0 14.9 23.8 33.3 87.0 74.6 254.2
02/09 05:10 8.6 78 6.7 5 11 13 1014.9 0 15.7 24.3 34.7 90.7 79.4 271.1
02/09 05:00 9.5 73 6.65 4.9 7 13 1014.6 0 15.6 24.0 34.1 89.1 77.8 265.7
02/09 04:50 9.2 74 6.61 4.8 7 13 1015 0 15.5 24.0 34.1 89.1 77.6 265.0
02/09 04:40 9.2 77 6.88 5.4 11 17 1014.9 0 16.1 24.5 35.1 91.9 81.1 277.4
02/09 04:30 8.5 82 7 5.6 6 9 1014.6 0 16.4 24.9 35.9 94.0 83.4 285.4
02/09 04:20 7.6 86 6.93 5.4 9 15 1015 0 16.3 25.0 36.1 94.4 83.5 285.5

Last Refresh: 02-Sep-2026 20:29:31

Bureau of Meteorology